sensor_id;sensor_type;location;lat;lon;timestamp;pressure;altitude;pressure_sealevel;temperature;humidity
3142;BME280;1581;51.568;6.998;2022-08-02T05:34:28;101160.56;;;17.77;100.00
3142;BME280;1581;51.568;6.998;2022-08-02T05:36:56;101151.84;;;17.81;100.00
3142;BME280;1581;51.568;6.998;2022-08-02T05:39:23;101157.66;;;17.96;100.00
3142;BME280;1581;51.568;6.998;2022-08-02T05:41:51;101148.16;;;17.94;100.00
3142;BME280;1581;51.568;6.998;2022-08-02T05:44:19;101140.44;;;17.97;100.00
3142;BME280;1581;51.568;6.998;2022-08-02T05:46:46;101144.47;;;18.06;100.00
3142;BME280;1581;51.568;6.998;2022-08-02T05:49:14;101147.19;;;18.17;100.00
3142;BME280;1581;51.568;6.998;2022-08-02T05:51:53;101138.91;;;18.19;100.00
3142;BME280;1581;51.568;6.998;2022-08-02T05:54:35;101145.50;;;18.23;100.00
3142;BME280;1581;51.568;6.998;2022-08-02T05:57:10;101148.63;;;18.38;100.00
3142;BME280;1581;51.568;6.998;2022-08-02T05:59:55;101146.78;;;18.50;100.00
3142;BME280;1581;51.568;6.998;2022-08-02T06:02:34;101136.13;;;18.55;100.00
3142;BME280;1581;51.568;6.998;2022-08-02T06:05:11;101140.22;;;18.57;100.00
3142;BME280;1581;51.568;6.998;2022-08-02T06:07:45;101137.47;;;18.75;100.00
3142;BME280;1581;51.568;6.998;2022-08-02T06:10:15;101133.38;;;18.84;100.00
3142;BME280;1581;51.568;6.998;2022-08-02T06:12:49;101134.78;;;18.87;100.00
3142;BME280;1581;51.568;6.998;2022-08-02T06:15:19;101135.59;;;18.87;100.00
3142;BME280;1581;51.568;6.998;2022-08-02T06:17:47;101139.03;;;19.05;100.00
3142;BME280;1581;51.568;6.998;2022-08-02T06:20:15;101138.44;;;19.03;100.00
3142;BME280;1581;51.568;6.998;2022-08-02T06:22:49;101139.19;;;19.10;100.00
3142;BME280;1581;51.568;6.998;2022-08-02T06:25:19;101131.34;;;19.20;100.00
3142;BME280;1581;51.568;6.998;2022-08-02T06:27:48;101135.91;;;19.31;100.00
3142;BME280;1581;51.568;6.998;2022-08-02T06:30:17;101129.09;;;19.40;100.00
3142;BME280;1581;51.568;6.998;2022-08-02T06:32:45;101131.88;;;19.45;100.00
3142;BME280;1581;51.568;6.998;2022-08-02T06:35:15;101133.66;;;19.40;100.00
3142;BME280;1581;51.568;6.998;2022-08-02T06:37:49;101136.00;;;19.59;100.00
3142;BME280;1581;51.568;6.998;2022-08-02T06:40:25;101140.34;;;19.60;100.00
3142;BME280;1581;51.568;6.998;2022-08-02T06:43:05;101140.19;;;19.67;100.00
3142;BME280;1581;51.568;6.998;2022-08-02T06:45:37;101138.28;;;19.79;100.00
3142;BME280;1581;51.568;6.998;2022-08-02T06:48:06;101136.72;;;19.94;100.00
3142;BME280;1581;51.568;6.998;2022-08-02T06:50:34;101148.50;;;19.99;100.00
3142;BME280;1581;51.568;6.998;2022-08-02T06:53:05;101144.41;;;19.97;100.00
3142;BME280;1581;51.568;6.998;2022-08-02T06:55:34;101142.56;;;20.14;100.00
3142;BME280;1581;51.568;6.998;2022-08-02T06:58:02;101137.28;;;20.19;100.00
3142;BME280;1581;51.568;6.998;2022-08-02T07:00:30;101133.44;;;20.31;100.00
3142;BME280;1581;51.568;6.998;2022-08-02T07:02:58;101127.72;;;20.28;100.00
3142;BME280;1581;51.568;6.998;2022-08-02T07:05:25;101137.16;;;20.42;100.00
3142;BME280;1581;51.568;6.998;2022-08-02T07:07:53;101137.34;;;20.52;100.00
3142;BME280;1581;51.568;6.998;2022-08-02T07:10:22;101148.72;;;20.65;100.00
3142;BME280;1581;51.568;6.998;2022-08-02T07:12:50;101141.81;;;20.74;100.00
3142;BME280;1581;51.568;6.998;2022-08-02T07:15:19;101141.34;;;20.77;100.00
3142;BME280;1581;51.568;6.998;2022-08-02T07:17:47;101137.09;;;20.81;100.00
3142;BME280;1581;51.568;6.998;2022-08-02T07:20:15;101138.91;;;20.92;100.00
3142;BME280;1581;51.568;6.998;2022-08-02T07:22:43;101127.91;;;20.98;100.00
3142;BME280;1581;51.568;6.998;2022-08-02T07:25:11;101140.13;;;21.01;100.00
3142;BME280;1581;51.568;6.998;2022-08-02T07:27:40;101140.31;;;21.11;100.00
3142;BME280;1581;51.568;6.998;2022-08-02T07:30:09;101137.69;;;21.16;100.00
3142;BME280;1581;51.568;6.998;2022-08-02T07:32:37;101129.28;;;21.17;100.00
3142;BME280;1581;51.568;6.998;2022-08-02T07:35:06;101141.53;;;21.20;100.00
3142;BME280;1581;51.568;6.998;2022-08-02T07:37:36;101134.38;;;21.30;100.00
3142;BME280;1581;51.568;6.998;2022-08-02T07:40:06;101131.25;;;21.38;100.00
3142;BME280;1581;51.568;6.998;2022-08-02T07:42:33;101127.59;;;21.49;100.00
3142;BME280;1581;51.568;6.998;2022-08-02T07:45:05;101134.00;;;21.60;100.00
3142;BME280;1581;51.568;6.998;2022-08-02T07:47:35;101132.31;;;21.75;100.00
3142;BME280;1581;51.568;6.998;2022-08-02T07:50:05;101135.66;;;21.82;100.00
3142;BME280;1581;51.568;6.998;2022-08-02T07:52:33;101136.03;;;21.90;100.00
3142;BME280;1581;51.568;6.998;2022-08-02T07:55:00;101129.84;;;21.95;100.00
3142;BME280;1581;51.568;6.998;2022-08-02T07:57:28;101136.66;;;21.97;100.00
3142;BME280;1581;51.568;6.998;2022-08-02T07:59:56;101131.75;;;22.16;100.00
3142;BME280;1581;51.568;6.998;2022-08-02T08:02:25;101134.19;;;22.17;100.00
3142;BME280;1581;51.568;6.998;2022-08-02T08:04:53;101133.94;;;22.19;100.00
3142;BME280;1581;51.568;6.998;2022-08-02T08:07:21;101131.78;;;22.42;100.00
3142;BME280;1581;51.568;6.998;2022-08-02T08:09:49;101124.75;;;22.46;100.00
3142;BME280;1581;51.568;6.998;2022-08-02T08:12:18;101125.59;;;22.47;100.00
3142;BME280;1581;51.568;6.998;2022-08-02T08:14:45;101132.50;;;22.59;100.00
3142;BME280;1581;51.568;6.998;2022-08-02T08:17:13;101125.72;;;22.61;100.00
3142;BME280;1581;51.568;6.998;2022-08-02T08:19:45;101126.34;;;22.68;100.00
3142;BME280;1581;51.568;6.998;2022-08-02T08:22:12;101119.94;;;22.79;100.00
3142;BME280;1581;51.568;6.998;2022-08-02T08:24:41;101130.88;;;22.89;100.00
3142;BME280;1581;51.568;6.998;2022-08-02T08:27:10;101123.81;;;22.93;94.90
3142;BME280;1581;51.568;6.998;2022-08-02T08:29:40;101126.34;;;23.00;93.42
3142;BME280;1581;51.568;6.998;2022-08-02T08:32:08;101117.47;;;23.09;92.05
3142;BME280;1581;51.568;6.998;2022-08-02T08:34:36;101123.78;;;23.20;91.53
3142;BME280;1581;51.568;6.998;2022-08-02T08:37:05;101115.97;;;23.28;89.30
3142;BME280;1581;51.568;6.998;2022-08-02T08:42:01;101115.19;;;23.38;83.76
3142;BME280;1581;51.568;6.998;2022-08-02T08:44:33;101109.53;;;23.39;83.46
3142;BME280;1581;51.568;6.998;2022-08-02T08:47:00;101124.81;;;23.50;81.31
3142;BME280;1581;51.568;6.998;2022-08-02T08:49:39;101119.69;;;23.58;78.40
3142;BME280;1581;51.568;6.998;2022-08-02T08:52:11;101123.25;;;23.64;75.90
3142;BME280;1581;51.568;6.998;2022-08-02T08:54:41;101136.34;;;23.72;78.56
3142;BME280;1581;51.568;6.998;2022-08-02T08:57:10;101124.16;;;23.79;79.25
3142;BME280;1581;51.568;6.998;2022-08-02T08:59:39;101119.56;;;23.85;80.48
3142;BME280;1581;51.568;6.998;2022-08-02T09:02:07;101127.25;;;24.03;82.06
3142;BME280;1581;51.568;6.998;2022-08-02T09:04:53;101117.44;;;24.02;82.55
3142;BME280;1581;51.568;6.998;2022-08-02T09:07:24;101128.84;;;23.94;83.01
3142;BME280;1581;51.568;6.998;2022-08-02T09:09:53;101113.88;;;23.91;84.59
3142;BME280;1581;51.568;6.998;2022-08-02T09:12:20;101119.66;;;24.05;85.88
3142;BME280;1581;51.568;6.998;2022-08-02T09:14:50;101113.44;;;24.14;86.88
3142;BME280;1581;51.568;6.998;2022-08-02T09:17:18;101112.06;;;24.17;87.99
3142;BME280;1581;51.568;6.998;2022-08-02T09:19:47;101111.00;;;24.33;87.66
3142;BME280;1581;51.568;6.998;2022-08-02T09:22:33;101107.78;;;24.40;86.14
3142;BME280;1581;51.568;6.998;2022-08-02T09:25:06;101103.44;;;24.54;88.31
3142;BME280;1581;51.568;6.998;2022-08-02T09:27:43;101101.00;;;24.63;87.06
3142;BME280;1581;51.568;6.998;2022-08-02T09:30:16;101098.03;;;24.79;87.42
3142;BME280;1581;51.568;6.998;2022-08-02T09:32:44;101102.66;;;24.84;87.39
3142;BME280;1581;51.568;6.998;2022-08-02T09:35:13;101102.91;;;25.07;87.02
3142;BME280;1581;51.568;6.998;2022-08-02T09:38:10;101103.47;;;25.14;85.08
3142;BME280;1581;51.568;6.998;2022-08-02T09:40:40;101098.53;;;25.36;86.66
3142;BME280;1581;51.568;6.998;2022-08-02T09:43:09;101108.31;;;25.47;85.52
3142;BME280;1581;51.568;6.998;2022-08-02T09:45:36;101097.94;;;25.49;84.39
3142;BME280;1581;51.568;6.998;2022-08-02T09:48:06;101105.50;;;25.72;84.87
3142;BME280;1581;51.568;6.998;2022-08-02T09:50:36;101102.78;;;25.77;85.26
3142;BME280;1581;51.568;6.998;2022-08-02T09:53:04;101104.97;;;25.70;83.78
3142;BME280;1581;51.568;6.998;2022-08-02T09:55:33;101100.59;;;25.69;85.50
3142;BME280;1581;51.568;6.998;2022-08-02T09:58:17;101111.53;;;25.69;85.31
3142;BME280;1581;51.568;6.998;2022-08-02T10:00:53;101103.28;;;25.84;85.52
3142;BME280;1581;51.568;6.998;2022-08-02T10:03:22;101108.16;;;25.97;85.08
3142;BME280;1581;51.568;6.998;2022-08-02T10:05:52;101103.25;;;25.94;82.74
3142;BME280;1581;51.568;6.998;2022-08-02T10:08:21;101107.81;;;26.08;83.10
3142;BME280;1581;51.568;6.998;2022-08-02T10:10:51;101112.91;;;26.24;83.00
3142;BME280;1581;51.568;6.998;2022-08-02T10:13:29;101102.25;;;26.28;81.97
3142;BME280;1581;51.568;6.998;2022-08-02T10:15:59;101106.25;;;26.45;81.45
3142;BME280;1581;51.568;6.998;2022-08-02T10:18:28;101103.69;;;26.59;80.83
3142;BME280;1581;51.568;6.998;2022-08-02T10:20:56;101104.31;;;26.51;80.70
3142;BME280;1581;51.568;6.998;2022-08-02T10:23:25;101103.44;;;26.94;79.17
3142;BME280;1581;51.568;6.998;2022-08-02T10:25:55;101099.19;;;26.78;77.03
3142;BME280;1581;51.568;6.998;2022-08-02T10:28:26;101089.41;;;26.67;76.53
3142;BME280;1581;51.568;6.998;2022-08-02T10:30:57;101094.19;;;26.51;78.48
3142;BME280;1581;51.568;6.998;2022-08-02T10:33:27;101093.94;;;26.48;78.30
3142;BME280;1581;51.568;6.998;2022-08-02T10:35:56;101092.38;;;26.70;80.72
3142;BME280;1581;51.568;6.998;2022-08-02T10:38:25;101082.75;;;26.83;78.15
3142;BME280;1581;51.568;6.998;2022-08-02T10:40:55;101087.53;;;26.62;77.48
3142;BME280;1581;51.568;6.998;2022-08-02T10:43:46;101075.81;;;26.57;78.47
3142;BME280;1581;51.568;6.998;2022-08-02T10:46:32;101072.59;;;26.55;80.57
3142;BME280;1581;51.568;6.998;2022-08-02T10:49:11;101074.06;;;26.32;78.62
3142;BME280;1581;51.568;6.998;2022-08-02T10:52:04;101070.94;;;26.54;78.50
3142;BME280;1581;51.568;6.998;2022-08-02T10:54:35;101071.13;;;26.62;79.13
3142;BME280;1581;51.568;6.998;2022-08-02T10:57:16;101078.16;;;26.73;79.07
3142;BME280;1581;51.568;6.998;2022-08-02T10:59:45;101067.50;;;26.72;78.49
3142;BME280;1581;51.568;6.998;2022-08-02T11:02:13;101067.75;;;26.75;79.25
3142;BME280;1581;51.568;6.998;2022-08-02T11:05:13;101058.06;;;26.59;77.79
3142;BME280;1581;51.568;6.998;2022-08-02T11:07:44;101062.28;;;26.42;78.24
3142;BME280;1581;51.568;6.998;2022-08-02T11:10:34;101068.47;;;26.52;79.24
3142;BME280;1581;51.568;6.998;2022-08-02T11:13:10;101060.03;;;26.82;79.37
3142;BME280;1581;51.568;6.998;2022-08-02T11:15:59;101061.91;;;26.58;76.02
3142;BME280;1581;51.568;6.998;2022-08-02T11:19:02;101066.91;;;26.46;77.13
3142;BME280;1581;51.568;6.998;2022-08-02T11:21:39;101066.59;;;26.81;76.60
3142;BME280;1581;51.568;6.998;2022-08-02T11:24:26;101060.06;;;27.10;75.90
3142;BME280;1581;51.568;6.998;2022-08-02T11:26:58;101064.66;;;27.15;70.95
3142;BME280;1581;51.568;6.998;2022-08-02T11:29:38;101070.38;;;27.18;69.85
3142;BME280;1581;51.568;6.998;2022-08-02T11:32:19;101067.88;;;27.22;70.90
3142;BME280;1581;51.568;6.998;2022-08-02T11:34:51;101061.31;;;26.95;69.65
3142;BME280;1581;51.568;6.998;2022-08-02T11:37:31;101065.53;;;27.10;73.04
3142;BME280;1581;51.568;6.998;2022-08-02T11:40:07;101061.47;;;27.08;73.76
3142;BME280;1581;51.568;6.998;2022-08-02T11:42:37;101048.91;;;27.02;70.16
3142;BME280;1581;51.568;6.998;2022-08-02T11:45:11;101062.50;;;27.35;71.15
3142;BME280;1581;51.568;6.998;2022-08-02T11:47:45;101063.56;;;27.39;67.50
3142;BME280;1581;51.568;6.998;2022-08-02T11:50:15;101065.44;;;27.44;66.91
3142;BME280;1581;51.568;6.998;2022-08-02T11:52:56;101059.28;;;27.33;64.14
3142;BME280;1581;51.568;6.998;2022-08-02T11:55:30;101042.25;;;27.36;65.61
3142;BME280;1581;51.568;6.998;2022-08-02T11:57:59;101053.38;;;27.45;69.25
3142;BME280;1581;51.568;6.998;2022-08-02T12:00:34;101045.25;;;27.40;69.98
3142;BME280;1581;51.568;6.998;2022-08-02T12:03:04;101049.78;;;27.49;68.81
3142;BME280;1581;51.568;6.998;2022-08-02T12:05:33;101036.91;;;27.50;68.60
3142;BME280;1581;51.568;6.998;2022-08-02T12:08:09;101038.28;;;27.47;64.83
3142;BME280;1581;51.568;6.998;2022-08-02T12:10:52;101051.72;;;27.72;65.04
3142;BME280;1581;51.568;6.998;2022-08-02T12:13:27;101047.38;;;27.90;64.75
3142;BME280;1581;51.568;6.998;2022-08-02T12:15:57;101041.94;;;27.85;63.06
3142;BME280;1581;51.568;6.998;2022-08-02T12:18:50;101051.88;;;27.99;61.39
3142;BME280;1581;51.568;6.998;2022-08-02T12:21:35;101043.00;;;27.89;61.04
3142;BME280;1581;51.568;6.998;2022-08-02T12:24:03;101033.25;;;28.19;62.51
3142;BME280;1581;51.568;6.998;2022-08-02T12:26:41;101040.47;;;28.10;60.20
3142;BME280;1581;51.568;6.998;2022-08-02T12:29:09;101038.25;;;28.12;60.99
3142;BME280;1581;51.568;6.998;2022-08-02T12:31:44;101041.34;;;28.61;61.04
3142;BME280;1581;51.568;6.998;2022-08-02T12:34:14;101049.06;;;30.61;53.03
3142;BME280;1581;51.568;6.998;2022-08-02T12:36:56;101047.97;;;31.52;48.04
3142;BME280;1581;51.568;6.998;2022-08-02T12:39:40;101050.00;;;30.56;48.80
3142;BME280;1581;51.568;6.998;2022-08-02T12:42:11;101047.53;;;29.84;52.90
3142;BME280;1581;51.568;6.998;2022-08-02T12:44:50;101054.63;;;29.85;54.95
3142;BME280;1581;51.568;6.998;2022-08-02T12:47:20;101046.56;;;29.53;53.03
3142;BME280;1581;51.568;6.998;2022-08-02T12:50:13;101046.13;;;29.60;54.95
3142;BME280;1581;51.568;6.998;2022-08-02T12:52:41;101045.91;;;29.56;54.79
3142;BME280;1581;51.568;6.998;2022-08-02T12:55:21;101039.41;;;29.66;55.46
3142;BME280;1581;51.568;6.998;2022-08-02T12:57:53;101033.72;;;29.49;54.79
3142;BME280;1581;51.568;6.998;2022-08-02T13:00:25;101036.41;;;29.35;54.72
3142;BME280;1581;51.568;6.998;2022-08-02T13:02:55;101023.13;;;29.29;54.72
3142;BME280;1581;51.568;6.998;2022-08-02T13:05:24;101020.25;;;29.34;57.43
3142;BME280;1581;51.568;6.998;2022-08-02T13:07:54;101025.09;;;28.96;54.54
3142;BME280;1581;51.568;6.998;2022-08-02T13:10:23;101025.63;;;29.12;57.62
3142;BME280;1581;51.568;6.998;2022-08-02T13:12:51;101019.25;;;29.30;56.39
3142;BME280;1581;51.568;6.998;2022-08-02T13:15:21;101016.00;;;29.28;56.55
3142;BME280;1581;51.568;6.998;2022-08-02T13:17:49;101015.09;;;29.32;56.56
3142;BME280;1581;51.568;6.998;2022-08-02T13:20:19;100996.50;;;29.43;58.64
3142;BME280;1581;51.568;6.998;2022-08-02T13:22:47;101007.06;;;29.49;56.37
3142;BME280;1581;51.568;6.998;2022-08-02T13:25:15;100990.47;;;29.68;56.61
3142;BME280;1581;51.568;6.998;2022-08-02T13:27:45;100999.16;;;29.48;55.27
3142;BME280;1581;51.568;6.998;2022-08-02T13:30:13;100991.38;;;29.36;55.75
3142;BME280;1581;51.568;6.998;2022-08-02T13:32:42;100999.53;;;29.55;56.33
3142;BME280;1581;51.568;6.998;2022-08-02T13:35:11;101001.69;;;29.58;57.57
3142;BME280;1581;51.568;6.998;2022-08-02T13:37:41;101005.03;;;29.41;55.17
3142;BME280;1581;51.568;6.998;2022-08-02T13:40:11;101009.00;;;29.49;54.57
3142;BME280;1581;51.568;6.998;2022-08-02T13:42:39;101009.09;;;29.44;55.47
3142;BME280;1581;51.568;6.998;2022-08-02T13:45:09;101008.25;;;29.70;55.90
3142;BME280;1581;51.568;6.998;2022-08-02T13:47:38;100993.81;;;29.65;55.08
3142;BME280;1581;51.568;6.998;2022-08-02T13:50:07;100990.38;;;29.59;55.37
3142;BME280;1581;51.568;6.998;2022-08-02T13:52:39;100997.38;;;29.52;56.88
3142;BME280;1581;51.568;6.998;2022-08-02T13:55:08;100989.59;;;29.80;55.89
3142;BME280;1581;51.568;6.998;2022-08-02T13:57:36;100991.53;;;29.93;52.73
3142;BME280;1581;51.568;6.998;2022-08-02T14:00:06;100987.13;;;29.92;54.00
3142;BME280;1581;51.568;6.998;2022-08-02T14:02:35;100982.13;;;30.08;53.80
3142;BME280;1581;51.568;6.998;2022-08-02T14:05:04;100985.38;;;30.10;51.24
3142;BME280;1581;51.568;6.998;2022-08-02T14:07:32;100980.22;;;30.08;51.45
3142;BME280;1581;51.568;6.998;2022-08-02T14:10:01;100984.72;;;30.26;52.88
3142;BME280;1581;51.568;6.998;2022-08-02T14:12:29;100965.56;;;30.21;51.03
3142;BME280;1581;51.568;6.998;2022-08-02T14:14:56;100966.88;;;30.46;51.02
3142;BME280;1581;51.568;6.998;2022-08-02T14:17:24;100971.69;;;30.40;48.31
3142;BME280;1581;51.568;6.998;2022-08-02T14:19:52;100971.25;;;30.47;49.68
3142;BME280;1581;51.568;6.998;2022-08-02T14:22:19;100965.22;;;30.58;51.61
3142;BME280;1581;51.568;6.998;2022-08-02T14:24:47;100971.97;;;30.52;50.67
3142;BME280;1581;51.568;6.998;2022-08-02T14:27:16;100960.16;;;30.52;49.54
3142;BME280;1581;51.568;6.998;2022-08-02T14:29:43;100969.19;;;30.74;50.34
3142;BME280;1581;51.568;6.998;2022-08-02T14:32:12;100964.53;;;30.83;50.93
3142;BME280;1581;51.568;6.998;2022-08-02T14:34:40;100952.09;;;30.55;49.58
3142;BME280;1581;51.568;6.998;2022-08-02T14:37:09;100956.31;;;30.61;47.74
3142;BME280;1581;51.568;6.998;2022-08-02T14:39:37;100959.06;;;30.61;46.38
3142;BME280;1581;51.568;6.998;2022-08-02T14:42:05;100963.34;;;30.75;47.31
3142;BME280;1581;51.568;6.998;2022-08-02T14:44:34;100949.13;;;30.73;46.41
3142;BME280;1581;51.568;6.998;2022-08-02T14:47:01;100952.50;;;30.70;46.68
3142;BME280;1581;51.568;6.998;2022-08-02T14:49:30;100948.06;;;30.91;48.71
3142;BME280;1581;51.568;6.998;2022-08-02T14:51:58;100947.69;;;31.15;48.76
3142;BME280;1581;51.568;6.998;2022-08-02T14:54:29;100946.53;;;31.07;48.19
3142;BME280;1581;51.568;6.998;2022-08-02T14:56:59;100947.91;;;30.96;46.12
3142;BME280;1581;51.568;6.998;2022-08-02T14:59:28;100959.66;;;31.10;49.83
3142;BME280;1581;51.568;6.998;2022-08-02T15:01:57;100951.59;;;31.14;46.12
3142;BME280;1581;51.568;6.998;2022-08-02T15:04:26;100946.25;;;31.17;46.80
3142;BME280;1581;51.568;6.998;2022-08-02T15:06:54;100947.91;;;31.27;44.96
3142;BME280;1581;51.568;6.998;2022-08-02T15:09:22;100944.19;;;31.40;46.28
3142;BME280;1581;51.568;6.998;2022-08-02T15:11:49;100946.47;;;31.38;44.35
3142;BME280;1581;51.568;6.998;2022-08-02T15:14:18;100923.09;;;31.18;43.30
3142;BME280;1581;51.568;6.998;2022-08-02T15:16:46;100923.78;;;31.49;47.04
3142;BME280;1581;51.568;6.998;2022-08-02T15:19:15;100932.72;;;31.54;43.41
3142;BME280;1581;51.568;6.998;2022-08-02T15:21:46;100936.50;;;31.75;43.98
3142;BME280;1581;51.568;6.998;2022-08-02T15:24:13;100943.16;;;31.83;43.83
3142;BME280;1581;51.568;6.998;2022-08-02T15:26:41;100925.81;;;31.74;44.30
3142;BME280;1581;51.568;6.998;2022-08-02T15:29:08;100926.88;;;31.48;43.56
3142;BME280;1581;51.568;6.998;2022-08-02T15:31:36;100937.13;;;31.72;44.89
3142;BME280;1581;51.568;6.998;2022-08-02T15:34:04;100922.81;;;31.53;43.91
3142;BME280;1581;51.568;6.998;2022-08-02T15:36:33;100931.06;;;31.37;43.75
3142;BME280;1581;51.568;6.998;2022-08-02T15:39:01;100928.66;;;31.44;44.65
3142;BME280;1581;51.568;6.998;2022-08-02T15:41:29;100923.06;;;32.08;43.03
3142;BME280;1581;51.568;6.998;2022-08-02T15:43:57;100926.91;;;32.07;42.81
3142;BME280;1581;51.568;6.998;2022-08-02T15:46:26;100924.50;;;31.97;44.91
3142;BME280;1581;51.568;6.998;2022-08-02T15:48:54;100920.16;;;32.13;41.89
3142;BME280;1581;51.568;6.998;2022-08-02T15:51:21;100927.06;;;32.44;43.03
3142;BME280;1581;51.568;6.998;2022-08-02T15:53:50;100920.44;;;32.28;40.87
3142;BME280;1581;51.568;6.998;2022-08-02T15:56:18;100917.78;;;32.48;41.74
3142;BME280;1581;51.568;6.998;2022-08-02T15:58:46;100915.72;;;32.37;40.72
3142;BME280;1581;51.568;6.998;2022-08-02T16:01:14;100915.69;;;32.45;42.36
3142;BME280;1581;51.568;6.998;2022-08-02T16:03:41;100913.38;;;32.64;41.85
3142;BME280;1581;51.568;6.998;2022-08-02T16:06:09;100917.28;;;32.55;39.69
3142;BME280;1581;51.568;6.998;2022-08-02T16:08:37;100908.34;;;32.58;41.58
3142;BME280;1581;51.568;6.998;2022-08-02T16:11:07;100913.81;;;32.83;41.91
3142;BME280;1581;51.568;6.998;2022-08-02T16:13:35;100911.72;;;32.80;40.69
3142;BME280;1581;51.568;6.998;2022-08-02T16:16:20;100912.34;;;32.77;40.12
3142;BME280;1581;51.568;6.998;2022-08-02T16:18:48;100910.72;;;33.22;39.84
3142;BME280;1581;51.568;6.998;2022-08-02T16:42:01;100899.75;;;34.48;35.60
3142;BME280;1581;51.568;6.998;2022-08-02T16:44:29;100893.63;;;34.10;35.00
3142;BME280;1581;51.568;6.998;2022-08-02T16:46:59;100896.66;;;34.17;35.78
3142;BME280;1581;51.568;6.998;2022-08-02T16:49:27;100888.97;;;34.34;35.07
3142;BME280;1581;51.568;6.998;2022-08-02T16:51:56;100900.97;;;35.54;34.15
3142;BME280;1581;51.568;6.998;2022-08-02T16:54:23;100892.72;;;36.67;30.56
3142;BME280;1581;51.568;6.998;2022-08-02T16:56:51;100899.53;;;38.03;28.72
3142;BME280;1581;51.568;6.998;2022-08-02T16:59:21;100888.34;;;36.97;30.28
3142;BME280;1581;51.568;6.998;2022-08-02T17:01:49;100883.38;;;36.02;32.38
3142;BME280;1581;51.568;6.998;2022-08-02T17:04:17;100869.25;;;35.04;33.85
3142;BME280;1581;51.568;6.998;2022-08-02T17:06:44;100866.81;;;34.79;35.11
3142;BME280;1581;51.568;6.998;2022-08-02T17:09:12;100871.69;;;35.06;34.55
3142;BME280;1581;51.568;6.998;2022-08-02T17:11:40;100863.56;;;34.65;34.80
3142;BME280;1581;51.568;6.998;2022-08-02T17:14:09;100872.56;;;35.21;34.12
3142;BME280;1581;51.568;6.998;2022-08-02T17:16:39;100876.94;;;34.63;34.07
3142;BME280;1581;51.568;6.998;2022-08-02T17:19:06;100864.00;;;33.49;36.63
3142;BME280;1581;51.568;6.998;2022-08-02T17:21:34;100860.91;;;33.10;38.30
3142;BME280;1581;51.568;6.998;2022-08-02T17:24:02;100859.22;;;32.89;39.11
3142;BME280;1581;51.568;6.998;2022-08-02T17:26:30;100860.97;;;32.93;38.91
3142;BME280;1581;51.568;6.998;2022-08-02T17:28:58;100859.28;;;33.30;38.10
3142;BME280;1581;51.568;6.998;2022-08-02T17:31:26;100857.25;;;32.89;37.76
3142;BME280;1581;51.568;6.998;2022-08-02T17:33:55;100859.81;;;32.94;37.40
3142;BME280;1581;51.568;6.998;2022-08-02T17:36:22;100863.53;;;32.98;39.09
3142;BME280;1581;51.568;6.998;2022-08-02T17:38:50;100863.88;;;32.59;38.70
3142;BME280;1581;51.568;6.998;2022-08-02T17:41:17;100858.56;;;32.38;39.48
3142;BME280;1581;51.568;6.998;2022-08-02T17:43:45;100857.66;;;32.25;40.21
3142;BME280;1581;51.568;6.998;2022-08-02T17:46:13;100859.50;;;31.62;39.71
3142;BME280;1581;51.568;6.998;2022-08-02T17:48:41;100855.72;;;31.50;43.04
3142;BME280;1581;51.568;6.998;2022-08-02T17:51:27;100855.84;;;30.72;44.09
3142;BME280;1581;51.568;6.998;2022-08-02T17:53:55;100855.50;;;30.65;46.23
3142;BME280;1581;51.568;6.998;2022-08-02T17:56:22;100845.53;;;30.17;46.82
3142;BME280;1581;51.568;6.998;2022-08-02T17:58:51;100843.50;;;30.00;47.65
3142;BME280;1581;51.568;6.998;2022-08-02T18:01:19;100841.59;;;29.66;51.20
3142;BME280;1581;51.568;6.998;2022-08-02T18:03:47;100845.47;;;29.65;55.64
3142;BME280;1581;51.568;6.998;2022-08-02T18:06:15;100849.03;;;29.30;55.44
3142;BME280;1581;51.568;6.998;2022-08-02T18:08:44;100835.75;;;28.96;51.98
3142;BME280;1581;51.568;6.998;2022-08-02T18:11:12;100836.66;;;29.05;57.33
3142;BME280;1581;51.568;6.998;2022-08-02T18:13:40;100833.41;;;28.90;54.98
3142;BME280;1581;51.568;6.998;2022-08-02T18:16:08;100835.25;;;28.94;56.88
3142;BME280;1581;51.568;6.998;2022-08-02T18:18:35;100841.44;;;28.73;59.40
3142;BME280;1581;51.568;6.998;2022-08-02T18:21:10;100838.88;;;28.50;57.46
3142;BME280;1581;51.568;6.998;2022-08-02T18:23:38;100838.19;;;28.58;58.69
3142;BME280;1581;51.568;6.998;2022-08-02T18:26:07;100839.81;;;28.45;64.82
3142;BME280;1581;51.568;6.998;2022-08-02T18:28:35;100838.97;;;28.31;59.63
3142;BME280;1581;51.568;6.998;2022-08-02T18:31:03;100834.00;;;28.33;64.37
3142;BME280;1581;51.568;6.998;2022-08-02T18:33:32;100841.59;;;28.23;68.13
3142;BME280;1581;51.568;6.998;2022-08-02T18:36:00;100843.97;;;28.11;68.00
3142;BME280;1581;51.568;6.998;2022-08-02T18:38:28;100849.06;;;28.04;65.46
3142;BME280;1581;51.568;6.998;2022-08-02T18:40:56;100838.34;;;27.89;67.70
3142;BME280;1581;51.568;6.998;2022-08-02T18:43:29;100845.50;;;27.85;69.78
3142;BME280;1581;51.568;6.998;2022-08-02T18:45:58;100846.94;;;27.83;69.09
3142;BME280;1581;51.568;6.998;2022-08-02T18:48:26;100836.13;;;27.73;65.79
3142;BME280;1581;51.568;6.998;2022-08-02T18:51:08;100842.72;;;27.72;69.61
3142;BME280;1581;51.568;6.998;2022-08-02T18:53:37;100843.69;;;27.62;71.94
3142;BME280;1581;51.568;6.998;2022-08-02T18:56:07;100848.78;;;27.50;70.05
3142;BME280;1581;51.568;6.998;2022-08-02T18:58:38;100850.94;;;27.53;70.49
3142;BME280;1581;51.568;6.998;2022-08-02T19:01:06;100856.84;;;27.42;72.39
3142;BME280;1581;51.568;6.998;2022-08-02T19:03:35;100848.94;;;27.40;69.58
3142;BME280;1581;51.568;6.998;2022-08-02T19:06:03;100847.56;;;27.24;73.76
3142;BME280;1581;51.568;6.998;2022-08-02T19:08:31;100857.44;;;27.20;69.59
3142;BME280;1581;51.568;6.998;2022-08-02T19:10:59;100860.97;;;27.03;66.65
3142;BME280;1581;51.568;6.998;2022-08-02T19:13:27;100861.06;;;27.16;69.49
3142;BME280;1581;51.568;6.998;2022-08-02T19:15:57;100858.91;;;27.13;71.80
3142;BME280;1581;51.568;6.998;2022-08-02T19:18:25;100851.69;;;26.99;73.96
3142;BME280;1581;51.568;6.998;2022-08-02T19:20:53;100855.97;;;26.86;72.87
3142;BME280;1581;51.568;6.998;2022-08-02T19:23:21;100850.03;;;26.79;75.21